EDT,Max TemperatureF,Mean TemperatureF,Min TemperatureF,Max Dew PointF,MeanDew PointF,Min DewpointF,Max Humidity, Mean Humidity, Min Humidity, Max Sea Level PressureIn, Mean Sea Level PressureIn, Min Sea Level PressureIn, Max VisibilityMiles, Mean VisibilityMiles, Min VisibilityMiles, Max Wind SpeedMPH, Mean Wind SpeedMPH, Max Gust SpeedMPH,PrecipitationIn, CloudCover, Events, WindDirDegrees
2012-3-1,61,49,37,41,35,27,100,68,36,29.99,29.72,29.60,10,6,0,28,10,36,0.00,3,Fog,317
2012-3-2,50,39,28,43,36,25,92,74,56,30.04,29.87,29.64,10,8,2,17,5,26,0.37,5,Rain,151
2012-3-3,57,50,43,45,32,15,100,60,20,29.75,29.62,29.52,10,8,2,29,10,36,T,3,,268
2012-3-4,44,37,30,24,20,17,63,51,38,29.91,29.78,29.72,10,10,10,24,9,33,0.00,3,,283
2012-3-5,42,33,24,30,20,12,75,58,40,30.48,30.14,29.91,10,8,0,25,7,32,T,4,Snow,290
2012-3-6,49,34,19,23,19,16,84,58,31,30.66,30.56,30.51,10,10,9,14,4,20,0.00,1,,187
2012-3-7,68,47,26,40,29,21,75,49,22,30.51,30.41,30.30,10,10,10,17,7,24,0.00,0,,178
2012-3-8,71,61,50,48,44,39,71,56,40,30.30,30.10,29.93,10,10,5,36,11,47,0.03,3,Rain,200
2012-3-9,55,46,37,39,21,13,71,49,26,30.39,30.20,30.05,10,10,10,31,15,40,0.00,1,,303
2012-3-10,48,39,29,19,12,7,59,39,19,30.59,30.51,30.41,10,10,10,17,6,24,0.00,0,,335
2012-3-11,65,44,23,30,24,17,81,53,24,30.53,30.44,30.34,10,10,8,12,2,15,0.00,0,,147
2012-3-12,70,52,34,41,33,28,76,50,23,30.34,30.24,30.10,10,10,9,13,2,16,T,2,,180
2012-3-13,79,67,55,53,48,43,77,54,31,30.08,30.04,29.98,10,10,10,23,9,30,T,2,,221
2012-3-14,81,66,51,46,40,32,67,44,21,30.20,30.14,30.06,10,10,10,17,3,21,0.00,0,,251
2012-3-15,83,63,43,55,45,39,89,57,24,30.21,30.15,30.10,10,10,7,18,2,26,0.03,1,Rain,183
2012-3-16,70,60,49,56,50,46,93,78,63,30.18,30.16,30.11,10,5,0,9,2,13,0.09,3,Fog-Rain,51
2012-3-17,76,61,46,54,49,45,100,73,46,30.29,30.23,30.19,10,4,0,10,3,14,0.00,2,Fog,118
2012-3-18,68,60,52,54,52,48,93,78,63,30.34,30.27,30.18,10,8,2,12,4,15,0.00,4,,130
2012-3-19,75,63,51,61,55,50,100,77,53,30.19,30.16,30.11,10,6,1,9,2,12,0.10,5,Rain,20
2012-3-20,74,64,54,59,57,53,100,79,57,30.27,30.20,30.17,10,5,0,10,1,15,0.01,5,Fog,31
2012-3-21,66,59,52,57,55,52,100,84,68,30.34,30.29,30.25,10,5,0,8,2,10,0.01,5,Fog,62
2012-3-22,79,67,55,61,58,54,100,77,54,30.26,30.19,30.08,10,6,0,12,2,20,0.00,3,Fog,59
2012-3-23,82,68,53,60,55,50,97,66,35,30.12,30.07,29.94,10,4,0,10,2,14,0.00,1,Fog,113
2012-3-24,66,63,59,59,56,49,97,78,58,29.95,29.90,29.87,10,6,2,10,4,14,0.41,7,Rain,64
2012-3-25,62,55,48,55,49,46,93,81,69,29.88,29.83,29.77,10,9,5,15,6,18,0.06,7,Rain,356
2012-3-26,60,49,38,51,27,8,75,49,22,30.25,30.00,29.83,10,10,10,26,15,38,0.00,0,,330
2012-3-27,56,43,29,29,13,7,70,43,16,30.39,30.29,30.16,10,10,10,15,4,23,0.00,0,,333
2012-3-28,80,59,37,56,42,29,76,51,26,30.13,29.81,29.66,10,10,9,31,8,38,T,2,Rain,252
2012-3-29,67,55,43,39,34,29,58,43,28,30.04,29.90,29.70,10,10,2,22,12,30,0.00,1,,336
2012-3-30,52,43,34,39,34,30,89,72,54,30.12,30.01,29.80,10,10,10,12,2,15,0.01,3,Rain,63
2012-3-31,64,54,44,48,44,39,92,76,60,29.91,29.82,29.75,10,7,2,21,6,31,0.02,6,Rain,19